createdAt,value
2023-04-02T00:05:52.142Z,6.03
2023-04-02T00:15:58.112Z,6.12
2023-04-02T00:26:00.583Z,6.05
2023-04-02T00:36:08.014Z,6.10
2023-04-02T00:46:24.504Z,5.80
2023-04-02T00:56:39.847Z,5.66
2023-04-02T01:06:44.124Z,5.39
2023-04-02T01:16:55.438Z,5.33
2023-04-02T01:27:01.350Z,5.16
2023-04-02T01:37:24.487Z,5.10
2023-04-02T01:47:29.145Z,4.94
2023-04-02T06:27:12.069Z,0.19
2023-04-02T06:37:27.937Z,0.94
2023-04-02T06:47:47.453Z,1.46
2023-04-02T06:57:49.973Z,1.76
2023-04-02T07:07:52.512Z,1.80
2023-04-02T07:17:57.779Z,1.72
2023-04-02T07:28:01.686Z,1.53
2023-04-02T07:38:04.162Z,1.25
2023-04-02T07:48:07.391Z,1.40
2023-04-02T07:58:10.172Z,1.44
2023-04-02T08:08:12.552Z,1.36
2023-04-02T08:18:15.005Z,1.39
2023-04-02T08:28:17.678Z,1.49
2023-04-02T08:38:21.994Z,1.50
2023-04-02T08:48:24.717Z,1.42
2023-04-02T08:58:39.752Z,1.38
2023-04-02T09:08:44.063Z,1.34
2023-04-02T09:18:48.140Z,1.55
2023-04-02T09:29:05.622Z,1.33
2023-04-02T09:39:21.409Z,1.20
2023-04-02T09:49:29.819Z,1.31
2023-04-02T09:59:32.269Z,1.40
2023-04-02T10:09:37.213Z,1.30
2023-04-02T10:19:43.727Z,1.22
2023-04-02T10:30:11.423Z,1.30
2023-04-02T10:40:46.507Z,1.06
2023-04-02T10:51:03.826Z,0.93
2023-04-02T11:01:18.060Z,1.14
2023-04-02T11:11:38.972Z,1.47
2023-04-02T11:22:01.474Z,1.18
2023-04-02T11:32:30.073Z,1.12
2023-04-02T11:42:34.538Z,1.19
2023-04-02T11:53:00.097Z,1.65
2023-04-02T12:03:35.475Z,2.08
2023-04-02T12:13:41.000Z,2.09
2023-04-02T12:23:46.596Z,1.89
2023-04-02T12:33:53.353Z,1.64
2023-04-02T12:44:04.628Z,1.79
2023-04-02T12:54:07.454Z,1.76
2023-04-02T13:04:12.704Z,1.59
2023-04-02T13:14:21.464Z,1.62
2023-04-02T13:24:29.238Z,1.52
2023-04-02T13:34:32.097Z,1.61
2023-04-02T13:44:37.821Z,1.71
2023-04-02T13:54:53.187Z,2.11
2023-04-02T14:05:13.769Z,2.13
2023-04-02T14:15:23.133Z,2.24
2023-04-02T14:25:31.395Z,2.21
2023-04-02T14:35:45.432Z,2.28
2023-04-02T14:45:59.064Z,2.31
2023-04-02T14:56:06.438Z,2.41
2023-04-02T15:06:18.742Z,2.46
2023-04-02T15:16:23.654Z,2.46
2023-04-02T15:26:47.138Z,2.48
2023-04-02T15:37:02.938Z,2.30
2023-04-02T15:47:36.691Z,2.26
2023-04-02T15:58:01.015Z,2.19
2023-04-02T16:08:18.476Z,2.05
2023-04-02T16:18:31.810Z,2.08
2023-04-02T16:28:43.432Z,2.04
2023-04-02T16:38:54.720Z,2.05
2023-04-02T16:49:15.218Z,2.03
2023-04-02T16:59:59.352Z,1.96
2023-04-02T17:10:19.644Z,1.88
2023-04-02T17:20:24.303Z,1.83
2023-04-02T17:30:43.792Z,1.79
2023-04-02T17:40:48.716Z,1.74
2023-04-02T17:51:18.342Z,1.68
2023-04-02T18:01:30.646Z,1.68
2023-04-02T18:11:54.539Z,1.61
2023-04-02T18:22:17.375Z,1.59
2023-04-02T18:32:25.963Z,1.52
2023-04-02T18:42:52.512Z,1.51
2023-04-02T18:52:55.270Z,1.50
2023-04-02T19:03:04.132Z,1.47
2023-04-02T19:13:18.108Z,1.47
2023-04-02T19:23:49.990Z,1.48
2023-04-02T19:34:16.535Z,1.49
2023-04-02T19:44:20.550Z,1.41
2023-04-02T19:54:23.212Z,1.38
2023-04-02T20:04:25.869Z,1.40
2023-04-02T20:14:28.403Z,1.34
2023-04-02T20:24:30.738Z,1.33
2023-04-02T20:40:11.273Z,1.24
2023-04-02T20:50:13.579Z,1.28
2023-04-02T21:00:16.309Z,1.32
2023-04-02T21:10:18.768Z,1.37
2023-04-02T21:20:21.306Z,1.40
2023-04-02T21:30:23.616Z,1.42
2023-04-02T21:40:26.320Z,1.50
2023-04-02T21:50:28.865Z,1.50
2023-04-02T22:00:31.209Z,1.02
2023-04-02T22:10:36.082Z,0.61
2023-04-02T22:20:39.465Z,0.37
2023-04-02T22:30:42.198Z,0.20
2023-04-02T22:40:44.603Z,0.01
2023-04-02T22:50:51.058Z,-0.26
2023-04-02T23:00:53.407Z,-0.51
2023-04-02T23:11:05.555Z,-0.42
2023-04-02T23:21:08.168Z,-0.59
2023-04-02T23:31:19.280Z,-0.65
2023-04-02T23:41:23.968Z,-0.77
2023-04-02T23:51:26.906Z,-0.67
